sensor_id;sensor_type;location;lat;lon;timestamp;P1;durP1;ratioP1;P2;durP2;ratioP2
14205;SDS011;7186;48.800;9.216;2022-08-11T00:00:18;3.70;;;2.57;;
14205;SDS011;7186;48.800;9.216;2022-08-11T00:02:48;2.57;;;2.37;;
14205;SDS011;7186;48.800;9.216;2022-08-11T00:05:16;2.60;;;2.40;;
14205;SDS011;7186;48.800;9.216;2022-08-11T00:07:50;4.43;;;2.73;;
14205;SDS011;7186;48.800;9.216;2022-08-11T00:10:27;3.40;;;2.80;;
14205;SDS011;7186;48.800;9.216;2022-08-11T00:12:58;3.23;;;2.80;;
14205;SDS011;7186;48.800;9.216;2022-08-11T00:15:27;5.73;;;3.40;;
14205;SDS011;7186;48.800;9.216;2022-08-11T00:18:02;4.77;;;3.40;;
14205;SDS011;7186;48.800;9.216;2022-08-11T00:20:29;5.53;;;3.83;;
14205;SDS011;7186;48.800;9.216;2022-08-11T00:23:30;6.33;;;3.90;;
14205;SDS011;7186;48.800;9.216;2022-08-11T00:25:50;4.43;;;3.60;;
14205;SDS011;7186;48.800;9.216;2022-08-11T00:28:23;5.53;;;3.60;;
14205;SDS011;7186;48.800;9.216;2022-08-11T00:30:57;6.57;;;4.00;;
14205;SDS011;7186;48.800;9.216;2022-08-11T00:33:29;7.73;;;5.03;;
14205;SDS011;7186;48.800;9.216;2022-08-11T00:35:58;8.37;;;4.10;;
14205;SDS011;7186;48.800;9.216;2022-08-11T00:38:27;5.47;;;3.43;;
14205;SDS011;7186;48.800;9.216;2022-08-11T00:40:58;5.80;;;3.70;;
14205;SDS011;7186;48.800;9.216;2022-08-11T01:01:07;5.07;;;3.10;;
14205;SDS011;7186;48.800;9.216;2022-08-11T01:09:19;4.63;;;2.73;;
14205;SDS011;7186;48.800;9.216;2022-08-11T01:15:15;3.70;;;2.70;;
14205;SDS011;7186;48.800;9.216;2022-08-11T01:43:18;3.13;;;2.83;;
14205;SDS011;7186;48.800;9.216;2022-08-11T01:46:43;5.80;;;3.27;;
14205;SDS011;7186;48.800;9.216;2022-08-11T01:52:14;3.40;;;3.10;;
14205;SDS011;7186;48.800;9.216;2022-08-11T01:57:43;3.33;;;2.83;;
14205;SDS011;7186;48.800;9.216;2022-08-11T02:00:15;5.87;;;2.73;;
14205;SDS011;7186;48.800;9.216;2022-08-11T02:06:40;4.83;;;3.30;;
14205;SDS011;7186;48.800;9.216;2022-08-11T02:09:19;3.40;;;3.10;;
14205;SDS011;7186;48.800;9.216;2022-08-11T02:12:14;3.20;;;2.90;;
14205;SDS011;7186;48.800;9.216;2022-08-11T02:15:01;3.93;;;3.00;;
14205;SDS011;7186;48.800;9.216;2022-08-11T02:17:52;4.23;;;3.40;;
14205;SDS011;7186;48.800;9.216;2022-08-11T02:20:29;3.20;;;2.90;;
14205;SDS011;7186;48.800;9.216;2022-08-11T02:23:21;3.90;;;2.93;;
14205;SDS011;7186;48.800;9.216;2022-08-11T02:31:06;6.63;;;3.57;;
14205;SDS011;7186;48.800;9.216;2022-08-11T02:33:59;3.73;;;3.27;;
14205;SDS011;7186;48.800;9.216;2022-08-11T02:36:50;4.67;;;2.90;;
14205;SDS011;7186;48.800;9.216;2022-08-11T02:39:27;6.70;;;3.17;;
14205;SDS011;7186;48.800;9.216;2022-08-11T02:42:10;3.30;;;3.00;;
14205;SDS011;7186;48.800;9.216;2022-08-11T02:47:34;3.90;;;3.10;;
14205;SDS011;7186;48.800;9.216;2022-08-11T02:50:32;4.57;;;3.67;;
14205;SDS011;7186;48.800;9.216;2022-08-11T02:53:07;4.27;;;3.23;;
14205;SDS011;7186;48.800;9.216;2022-08-11T03:04:30;4.67;;;3.20;;
14205;SDS011;7186;48.800;9.216;2022-08-11T03:07:20;6.67;;;3.40;;
14205;SDS011;7186;48.800;9.216;2022-08-11T03:10:02;4.30;;;3.40;;
14205;SDS011;7186;48.800;9.216;2022-08-11T03:27:06;6.67;;;3.30;;
14205;SDS011;7186;48.800;9.216;2022-08-11T03:30:00;3.83;;;3.47;;
14205;SDS011;7186;48.800;9.216;2022-08-11T03:32:50;8.07;;;3.50;;
14205;SDS011;7186;48.800;9.216;2022-08-11T03:39:00;5.97;;;3.97;;
14205;SDS011;7186;48.800;9.216;2022-08-11T03:47:38;4.77;;;3.20;;
14205;SDS011;7186;48.800;9.216;2022-08-11T04:04:07;7.10;;;3.67;;
14205;SDS011;7186;48.800;9.216;2022-08-11T04:06:53;5.90;;;3.73;;
14205;SDS011;7186;48.800;9.216;2022-08-11T04:25:34;4.90;;;3.70;;
14205;SDS011;7186;48.800;9.216;2022-08-11T04:33:33;7.17;;;4.10;;
14205;SDS011;7186;48.800;9.216;2022-08-11T04:48:22;10.73;;;3.53;;
14205;SDS011;7186;48.800;9.216;2022-08-11T04:57:27;6.17;;;3.90;;
14205;SDS011;7186;48.800;9.216;2022-08-11T05:00:40;6.20;;;4.00;;
14205;SDS011;7186;48.800;9.216;2022-08-11T05:12:05;6.27;;;3.90;;
14205;SDS011;7186;48.800;9.216;2022-08-11T05:14:48;4.70;;;4.00;;
14205;SDS011;7186;48.800;9.216;2022-08-11T05:20:30;5.60;;;4.53;;
14205;SDS011;7186;48.800;9.216;2022-08-11T05:23:29;6.37;;;4.40;;
14205;SDS011;7186;48.800;9.216;2022-08-11T05:26:17;7.87;;;5.57;;
14205;SDS011;7186;48.800;9.216;2022-08-11T05:29:04;7.33;;;5.20;;
14205;SDS011;7186;48.800;9.216;2022-08-11T05:32:08;5.60;;;4.73;;
14205;SDS011;7186;48.800;9.216;2022-08-11T05:34:57;5.87;;;4.27;;
14205;SDS011;7186;48.800;9.216;2022-08-11T05:40:04;9.43;;;5.43;;
14205;SDS011;7186;48.800;9.216;2022-08-11T05:42:54;7.43;;;5.10;;
14205;SDS011;7186;48.800;9.216;2022-08-11T05:45:40;5.60;;;3.80;;
14205;SDS011;7186;48.800;9.216;2022-08-11T05:48:31;6.87;;;4.73;;
14205;SDS011;7186;48.800;9.216;2022-08-11T05:51:19;8.27;;;4.77;;
14205;SDS011;7186;48.800;9.216;2022-08-11T05:54:06;5.13;;;4.03;;
14205;SDS011;7186;48.800;9.216;2022-08-11T05:56:53;7.03;;;3.37;;
14205;SDS011;7186;48.800;9.216;2022-08-11T05:59:20;5.90;;;3.93;;
14205;SDS011;7186;48.800;9.216;2022-08-11T06:01:48;9.70;;;3.90;;
14205;SDS011;7186;48.800;9.216;2022-08-11T06:06:56;6.20;;;3.90;;
14205;SDS011;7186;48.800;9.216;2022-08-11T06:12:16;6.77;;;3.77;;
14205;SDS011;7186;48.800;9.216;2022-08-11T06:14:44;4.30;;;3.40;;
14205;SDS011;7186;48.800;9.216;2022-08-11T06:17:12;9.30;;;4.40;;
14205;SDS011;7186;48.800;9.216;2022-08-11T06:19:41;14.33;;;3.87;;
14205;SDS011;7186;48.800;9.216;2022-08-11T06:22:12;6.80;;;4.20;;
14205;SDS011;7186;48.800;9.216;2022-08-11T06:24:50;6.17;;;3.40;;
14205;SDS011;7186;48.800;9.216;2022-08-11T06:27:18;7.97;;;3.87;;
14205;SDS011;7186;48.800;9.216;2022-08-11T06:29:46;6.40;;;4.00;;
14205;SDS011;7186;48.800;9.216;2022-08-11T06:32:14;5.00;;;3.53;;
14205;SDS011;7186;48.800;9.216;2022-08-11T06:47:59;8.13;;;3.80;;
14205;SDS011;7186;48.800;9.216;2022-08-11T06:50:26;5.93;;;3.50;;
14205;SDS011;7186;48.800;9.216;2022-08-11T06:53:11;5.30;;;3.57;;
14205;SDS011;7186;48.800;9.216;2022-08-11T06:55:41;4.90;;;3.60;;
14205;SDS011;7186;48.800;9.216;2022-08-11T06:58:37;5.77;;;3.93;;
14205;SDS011;7186;48.800;9.216;2022-08-11T07:01:33;6.53;;;3.70;;
14205;SDS011;7186;48.800;9.216;2022-08-11T07:04:10;7.43;;;3.33;;
14205;SDS011;7186;48.800;9.216;2022-08-11T07:09:52;6.40;;;3.37;;
14205;SDS011;7186;48.800;9.216;2022-08-11T07:12:58;4.13;;;3.20;;
14205;SDS011;7186;48.800;9.216;2022-08-11T07:15:43;6.10;;;3.80;;
14205;SDS011;7186;48.800;9.216;2022-08-11T07:18:16;6.47;;;3.60;;
14205;SDS011;7186;48.800;9.216;2022-08-11T07:21:11;8.90;;;3.60;;
14205;SDS011;7186;48.800;9.216;2022-08-11T07:24:07;8.07;;;3.50;;
14205;SDS011;7186;48.800;9.216;2022-08-11T07:26:57;5.50;;;3.77;;
14205;SDS011;7186;48.800;9.216;2022-08-11T07:29:57;4.23;;;3.57;;
14205;SDS011;7186;48.800;9.216;2022-08-11T07:32:30;6.20;;;3.53;;
14205;SDS011;7186;48.800;9.216;2022-08-11T07:35:14;4.60;;;3.70;;
14205;SDS011;7186;48.800;9.216;2022-08-11T07:37:42;4.77;;;3.30;;
14205;SDS011;7186;48.800;9.216;2022-08-11T07:40:13;6.73;;;3.60;;
14205;SDS011;7186;48.800;9.216;2022-08-11T07:42:39;4.20;;;3.40;;
14205;SDS011;7186;48.800;9.216;2022-08-11T07:45:10;8.83;;;3.80;;
14205;SDS011;7186;48.800;9.216;2022-08-11T07:47:55;5.40;;;3.20;;
14205;SDS011;7186;48.800;9.216;2022-08-11T07:50:40;8.73;;;3.80;;
14205;SDS011;7186;48.800;9.216;2022-08-11T07:53:26;6.10;;;3.40;;
14205;SDS011;7186;48.800;9.216;2022-08-11T07:55:53;3.77;;;3.27;;
14205;SDS011;7186;48.800;9.216;2022-08-11T07:58:22;5.57;;;3.17;;
14205;SDS011;7186;48.800;9.216;2022-08-11T08:01:07;7.40;;;3.20;;
14205;SDS011;7186;48.800;9.216;2022-08-11T08:03:54;5.27;;;3.40;;
14205;SDS011;7186;48.800;9.216;2022-08-11T08:06:42;6.90;;;3.73;;
14205;SDS011;7186;48.800;9.216;2022-08-11T08:09:27;5.10;;;3.47;;
14205;SDS011;7186;48.800;9.216;2022-08-11T08:12:11;4.60;;;3.47;;
14205;SDS011;7186;48.800;9.216;2022-08-11T08:14:57;5.67;;;3.50;;
14205;SDS011;7186;48.800;9.216;2022-08-11T08:17:42;8.03;;;3.50;;
14205;SDS011;7186;48.800;9.216;2022-08-11T08:20:22;3.87;;;3.37;;
14205;SDS011;7186;48.800;9.216;2022-08-11T08:22:55;3.47;;;3.03;;
14205;SDS011;7186;48.800;9.216;2022-08-11T08:25:24;6.73;;;4.00;;
14205;SDS011;7186;48.800;9.216;2022-08-11T08:27:51;4.13;;;3.20;;
14205;SDS011;7186;48.800;9.216;2022-08-11T08:30:18;3.97;;;3.20;;
14205;SDS011;7186;48.800;9.216;2022-08-11T08:33:03;5.07;;;3.40;;
14205;SDS011;7186;48.800;9.216;2022-08-11T08:35:29;5.47;;;3.60;;
14205;SDS011;7186;48.800;9.216;2022-08-11T08:37:56;9.17;;;3.40;;
14205;SDS011;7186;48.800;9.216;2022-08-11T08:43:00;8.10;;;3.37;;
14205;SDS011;7186;48.800;9.216;2022-08-11T09:39:39;4.20;;;3.10;;
14205;SDS011;7186;48.800;9.216;2022-08-11T09:42:24;8.27;;;5.33;;
14205;SDS011;7186;48.800;9.216;2022-08-11T09:45:11;5.80;;;4.60;;
14205;SDS011;7186;48.800;9.216;2022-08-11T09:47:38;8.33;;;4.23;;
14205;SDS011;7186;48.800;9.216;2022-08-11T09:50:04;4.33;;;3.07;;
14205;SDS011;7186;48.800;9.216;2022-08-11T09:52:36;5.17;;;3.23;;
14205;SDS011;7186;48.800;9.216;2022-08-11T09:55:03;6.43;;;3.10;;
14205;SDS011;7186;48.800;9.216;2022-08-11T09:57:34;9.63;;;4.13;;
14205;SDS011;7186;48.800;9.216;2022-08-11T10:00:26;9.97;;;4.93;;
14205;SDS011;7186;48.800;9.216;2022-08-11T10:02:53;6.20;;;3.80;;
14205;SDS011;7186;48.800;9.216;2022-08-11T10:05:20;10.77;;;5.60;;
14205;SDS011;7186;48.800;9.216;2022-08-11T10:08:06;10.87;;;5.90;;
14205;SDS011;7186;48.800;9.216;2022-08-11T10:10:36;5.63;;;3.80;;
14205;SDS011;7186;48.800;9.216;2022-08-11T10:13:05;14.00;;;6.13;;
14205;SDS011;7186;48.800;9.216;2022-08-11T10:15:37;5.17;;;3.50;;
14205;SDS011;7186;48.800;9.216;2022-08-11T10:18:13;4.70;;;2.73;;
14205;SDS011;7186;48.800;9.216;2022-08-11T10:21:01;4.83;;;3.70;;
14205;SDS011;7186;48.800;9.216;2022-08-11T10:23:31;8.97;;;3.80;;
14205;SDS011;7186;48.800;9.216;2022-08-11T10:26:18;4.23;;;2.80;;
14205;SDS011;7186;48.800;9.216;2022-08-11T10:29:04;7.10;;;2.90;;
14205;SDS011;7186;48.800;9.216;2022-08-11T10:31:53;4.27;;;2.47;;
14205;SDS011;7186;48.800;9.216;2022-08-11T10:34:38;4.10;;;2.63;;
14205;SDS011;7186;48.800;9.216;2022-08-11T10:37:05;3.33;;;2.93;;
14205;SDS011;7186;48.800;9.216;2022-08-11T10:39:31;5.83;;;3.17;;
14205;SDS011;7186;48.800;9.216;2022-08-11T10:41:57;4.83;;;2.90;;
14205;SDS011;7186;48.800;9.216;2022-08-11T10:44:45;3.03;;;2.70;;
14205;SDS011;7186;48.800;9.216;2022-08-11T10:47:14;6.87;;;3.10;;
14205;SDS011;7186;48.800;9.216;2022-08-11T10:50:03;5.67;;;3.40;;
14205;SDS011;7186;48.800;9.216;2022-08-11T10:52:48;2.60;;;2.40;;
14205;SDS011;7186;48.800;9.216;2022-08-11T10:55:36;3.87;;;2.70;;
14205;SDS011;7186;48.800;9.216;2022-08-11T10:58:22;4.07;;;2.70;;
14205;SDS011;7186;48.800;9.216;2022-08-11T11:01:07;4.87;;;2.80;;
14205;SDS011;7186;48.800;9.216;2022-08-11T11:03:33;4.00;;;3.37;;
14205;SDS011;7186;48.800;9.216;2022-08-11T11:06:08;3.87;;;2.90;;
14205;SDS011;7186;48.800;9.216;2022-08-11T11:08:38;3.37;;;2.63;;
14205;SDS011;7186;48.800;9.216;2022-08-11T11:11:29;3.80;;;3.10;;
14205;SDS011;7186;48.800;9.216;2022-08-11T11:14:17;4.93;;;3.03;;
14205;SDS011;7186;48.800;9.216;2022-08-11T11:17:05;3.27;;;2.97;;
14205;SDS011;7186;48.800;9.216;2022-08-11T11:19:39;4.90;;;3.37;;
14205;SDS011;7186;48.800;9.216;2022-08-11T11:22:06;4.57;;;3.10;;
14205;SDS011;7186;48.800;9.216;2022-08-11T11:27:34;6.00;;;2.83;;
14205;SDS011;7186;48.800;9.216;2022-08-11T11:30:11;4.57;;;3.10;;
14205;SDS011;7186;48.800;9.216;2022-08-11T11:35:19;3.70;;;2.80;;
14205;SDS011;7186;48.800;9.216;2022-08-11T11:37:50;3.70;;;3.27;;
14205;SDS011;7186;48.800;9.216;2022-08-11T11:40:18;2.83;;;2.57;;
14205;SDS011;7186;48.800;9.216;2022-08-11T11:42:51;5.10;;;2.80;;
14205;SDS011;7186;48.800;9.216;2022-08-11T11:45:22;4.47;;;2.67;;
14205;SDS011;7186;48.800;9.216;2022-08-11T11:47:54;2.87;;;2.63;;
14205;SDS011;7186;48.800;9.216;2022-08-11T11:50:26;3.60;;;3.00;;
14205;SDS011;7186;48.800;9.216;2022-08-11T11:52:53;3.20;;;2.90;;
14205;SDS011;7186;48.800;9.216;2022-08-11T11:55:20;3.67;;;2.67;;
14205;SDS011;7186;48.800;9.216;2022-08-11T11:57:48;2.57;;;2.37;;
14205;SDS011;7186;48.800;9.216;2022-08-11T12:00:33;3.03;;;2.80;;
14205;SDS011;7186;48.800;9.216;2022-08-11T12:03:17;4.13;;;2.70;;
14205;SDS011;7186;48.800;9.216;2022-08-11T12:05:43;2.93;;;2.63;;
14205;SDS011;7186;48.800;9.216;2022-08-11T12:08:10;2.50;;;2.30;;
14205;SDS011;7186;48.800;9.216;2022-08-11T12:10:44;2.80;;;2.60;;
14205;SDS011;7186;48.800;9.216;2022-08-11T12:13:12;4.53;;;2.70;;
14205;SDS011;7186;48.800;9.216;2022-08-11T12:15:57;2.50;;;2.30;;
14205;SDS011;7186;48.800;9.216;2022-08-11T12:18:28;3.47;;;2.57;;
14205;SDS011;7186;48.800;9.216;2022-08-11T12:20:56;2.50;;;2.30;;
14205;SDS011;7186;48.800;9.216;2022-08-11T12:23:23;4.50;;;2.70;;
14205;SDS011;7186;48.800;9.216;2022-08-11T12:26:08;2.50;;;2.30;;
14205;SDS011;7186;48.800;9.216;2022-08-11T12:29:00;4.37;;;2.50;;
14205;SDS011;7186;48.800;9.216;2022-08-11T12:31:29;2.93;;;2.50;;
14205;SDS011;7186;48.800;9.216;2022-08-11T12:34:03;2.50;;;2.30;;
14205;SDS011;7186;48.800;9.216;2022-08-11T12:36:36;2.90;;;2.43;;
14205;SDS011;7186;48.800;9.216;2022-08-11T12:39:04;2.53;;;2.33;;
14205;SDS011;7186;48.800;9.216;2022-08-11T12:41:33;3.47;;;2.70;;
14205;SDS011;7186;48.800;9.216;2022-08-11T12:44:19;2.30;;;2.10;;
14205;SDS011;7186;48.800;9.216;2022-08-11T12:47:07;2.63;;;2.43;;
14205;SDS011;7186;48.800;9.216;2022-08-11T12:49:35;3.27;;;2.47;;
14205;SDS011;7186;48.800;9.216;2022-08-11T12:52:25;2.50;;;2.23;;
14205;SDS011;7186;48.800;9.216;2022-08-11T12:57:27;3.03;;;2.80;;
14205;SDS011;7186;48.800;9.216;2022-08-11T13:00:11;4.03;;;2.93;;
14205;SDS011;7186;48.800;9.216;2022-08-11T13:02:57;4.37;;;2.90;;
14205;SDS011;7186;48.800;9.216;2022-08-11T13:05:42;3.40;;;2.60;;
14205;SDS011;7186;48.800;9.216;2022-08-11T13:08:10;4.53;;;2.60;;
14205;SDS011;7186;48.800;9.216;2022-08-11T13:10:40;3.40;;;2.30;;
14205;SDS011;7186;48.800;9.216;2022-08-11T13:13:25;3.67;;;2.53;;
14205;SDS011;7186;48.800;9.216;2022-08-11T13:15:51;2.60;;;2.27;;
14205;SDS011;7186;48.800;9.216;2022-08-11T13:18:17;2.60;;;2.40;;
14205;SDS011;7186;48.800;9.216;2022-08-11T13:20:47;2.40;;;2.20;;
14205;SDS011;7186;48.800;9.216;2022-08-11T13:23:14;3.03;;;2.50;;
14205;SDS011;7186;48.800;9.216;2022-08-11T13:25:40;3.27;;;2.50;;
14205;SDS011;7186;48.800;9.216;2022-08-11T13:28:08;3.00;;;2.50;;
14205;SDS011;7186;48.800;9.216;2022-08-11T13:30:34;2.47;;;2.20;;
14205;SDS011;7186;48.800;9.216;2022-08-11T13:33:19;2.50;;;2.30;;
14205;SDS011;7186;48.800;9.216;2022-08-11T13:35:46;2.50;;;2.20;;
14205;SDS011;7186;48.800;9.216;2022-08-11T13:38:15;4.50;;;2.37;;
14205;SDS011;7186;48.800;9.216;2022-08-11T13:40:41;3.80;;;2.03;;
14205;SDS011;7186;48.800;9.216;2022-08-11T13:43:07;2.37;;;2.17;;
14205;SDS011;7186;48.800;9.216;2022-08-11T13:45:34;5.53;;;2.70;;
14205;SDS011;7186;48.800;9.216;2022-08-11T13:48:00;3.17;;;2.10;;
14205;SDS011;7186;48.800;9.216;2022-08-11T13:50:30;3.97;;;2.30;;
14205;SDS011;7186;48.800;9.216;2022-08-11T13:53:18;3.10;;;2.20;;
14205;SDS011;7186;48.800;9.216;2022-08-11T13:55:47;2.60;;;2.30;;
14205;SDS011;7186;48.800;9.216;2022-08-11T13:58:14;3.70;;;2.70;;
14205;SDS011;7186;48.800;9.216;2022-08-11T14:00:40;3.27;;;2.60;;
14205;SDS011;7186;48.800;9.216;2022-08-11T14:03:10;6.80;;;4.50;;
14205;SDS011;7186;48.800;9.216;2022-08-11T14:05:40;4.53;;;2.90;;
14205;SDS011;7186;48.800;9.216;2022-08-11T14:08:15;3.20;;;2.47;;
14205;SDS011;7186;48.800;9.216;2022-08-11T14:10:45;2.60;;;2.40;;
14205;SDS011;7186;48.800;9.216;2022-08-11T14:13:33;2.47;;;2.17;;
14205;SDS011;7186;48.800;9.216;2022-08-11T14:16:04;3.67;;;2.20;;
14205;SDS011;7186;48.800;9.216;2022-08-11T14:18:32;2.70;;;2.40;;
14205;SDS011;7186;48.800;9.216;2022-08-11T14:21:00;2.70;;;2.50;;
14205;SDS011;7186;48.800;9.216;2022-08-11T14:23:48;5.83;;;3.07;;
14205;SDS011;7186;48.800;9.216;2022-08-11T14:26:19;3.80;;;2.40;;
14205;SDS011;7186;48.800;9.216;2022-08-11T14:31:19;4.80;;;2.37;;
14205;SDS011;7186;48.800;9.216;2022-08-11T14:33:49;2.63;;;2.30;;
14205;SDS011;7186;48.800;9.216;2022-08-11T14:36:17;3.07;;;2.40;;
14205;SDS011;7186;48.800;9.216;2022-08-11T14:38:45;2.60;;;2.40;;
14205;SDS011;7186;48.800;9.216;2022-08-11T14:41:11;2.10;;;2.00;;
14205;SDS011;7186;48.800;9.216;2022-08-11T14:43:55;6.13;;;3.33;;
14205;SDS011;7186;48.800;9.216;2022-08-11T14:46:40;2.67;;;2.47;;
14205;SDS011;7186;48.800;9.216;2022-08-11T14:49:25;3.67;;;2.63;;
14205;SDS011;7186;48.800;9.216;2022-08-11T14:51:52;3.40;;;2.63;;
14205;SDS011;7186;48.800;9.216;2022-08-11T14:54:20;7.70;;;2.47;;
14205;SDS011;7186;48.800;9.216;2022-08-11T14:57:07;3.20;;;2.33;;
14205;SDS011;7186;48.800;9.216;2022-08-11T14:59:33;3.27;;;2.10;;
14205;SDS011;7186;48.800;9.216;2022-08-11T15:02:00;6.50;;;2.07;;
14205;SDS011;7186;48.800;9.216;2022-08-11T15:04:46;2.87;;;2.57;;
14205;SDS011;7186;48.800;9.216;2022-08-11T15:07:11;2.37;;;2.17;;
14205;SDS011;7186;48.800;9.216;2022-08-11T15:09:39;2.30;;;2.20;;
14205;SDS011;7186;48.800;9.216;2022-08-11T15:12:08;3.97;;;2.90;;
14205;SDS011;7186;48.800;9.216;2022-08-11T15:14:41;2.40;;;1.90;;
14205;SDS011;7186;48.800;9.216;2022-08-11T15:17:27;3.30;;;2.20;;
14205;SDS011;7186;48.800;9.216;2022-08-11T15:19:54;2.70;;;2.03;;
14205;SDS011;7186;48.800;9.216;2022-08-11T15:22:40;3.43;;;2.20;;
14205;SDS011;7186;48.800;9.216;2022-08-11T15:25:24;2.92;;;2.38;;
14205;SDS011;7186;48.800;9.216;2022-08-11T15:27:52;2.90;;;2.60;;
14205;SDS011;7186;48.800;9.216;2022-08-11T15:30:37;2.70;;;2.50;;
14205;SDS011;7186;48.800;9.216;2022-08-11T15:33:22;7.43;;;5.30;;
14205;SDS011;7186;48.800;9.216;2022-08-11T15:36:11;8.40;;;4.90;;
14205;SDS011;7186;48.800;9.216;2022-08-11T15:38:59;3.53;;;3.23;;
14205;SDS011;7186;48.800;9.216;2022-08-11T15:41:34;5.07;;;3.00;;
14205;SDS011;7186;48.800;9.216;2022-08-11T15:44:23;7.53;;;3.13;;
14205;SDS011;7186;48.800;9.216;2022-08-11T15:47:11;2.60;;;2.40;;
14205;SDS011;7186;48.800;9.216;2022-08-11T15:49:38;2.43;;;2.23;;
14205;SDS011;7186;48.800;9.216;2022-08-11T15:52:09;3.53;;;2.30;;
14205;SDS011;7186;48.800;9.216;2022-08-11T15:54:40;2.63;;;2.30;;
14205;SDS011;7186;48.800;9.216;2022-08-11T15:57:07;2.60;;;2.40;;
14205;SDS011;7186;48.800;9.216;2022-08-11T15:59:54;3.23;;;2.27;;
14205;SDS011;7186;48.800;9.216;2022-08-11T16:02:40;3.40;;;2.10;;
14205;SDS011;7186;48.800;9.216;2022-08-11T16:05:19;3.03;;;2.40;;
14205;SDS011;7186;48.800;9.216;2022-08-11T16:07:46;5.23;;;2.60;;
14205;SDS011;7186;48.800;9.216;2022-08-11T16:10:16;2.83;;;2.50;;
14205;SDS011;7186;48.800;9.216;2022-08-11T16:12:51;3.67;;;2.40;;
14205;SDS011;7186;48.800;9.216;2022-08-11T16:15:30;3.67;;;2.20;;
14205;SDS011;7186;48.800;9.216;2022-08-11T16:18:20;2.40;;;2.20;;
14205;SDS011;7186;48.800;9.216;2022-08-11T16:20:49;3.00;;;2.70;;
14205;SDS011;7186;48.800;9.216;2022-08-11T16:23:19;2.90;;;2.10;;
14205;SDS011;7186;48.800;9.216;2022-08-11T16:25:50;2.93;;;2.70;;
14205;SDS011;7186;48.800;9.216;2022-08-11T16:28:17;3.47;;;2.90;;
14205;SDS011;7186;48.800;9.216;2022-08-11T16:30:44;4.47;;;2.90;;
14205;SDS011;7186;48.800;9.216;2022-08-11T16:33:10;6.23;;;3.10;;
14205;SDS011;7186;48.800;9.216;2022-08-11T16:35:36;4.97;;;3.90;;
14205;SDS011;7186;48.800;9.216;2022-08-11T16:38:25;9.07;;;6.23;;
14205;SDS011;7186;48.800;9.216;2022-08-11T16:40:59;9.43;;;5.20;;
14205;SDS011;7186;48.800;9.216;2022-08-11T16:43:28;8.57;;;5.93;;
14205;SDS011;7186;48.800;9.216;2022-08-11T16:46:15;6.47;;;4.40;;
14205;SDS011;7186;48.800;9.216;2022-08-11T16:49:01;4.13;;;2.77;;
14205;SDS011;7186;48.800;9.216;2022-08-11T16:51:34;3.23;;;2.63;;
14205;SDS011;7186;48.800;9.216;2022-08-11T16:54:00;3.23;;;2.23;;
14205;SDS011;7186;48.800;9.216;2022-08-11T16:56:29;6.67;;;4.10;;
14205;SDS011;7186;48.800;9.216;2022-08-11T16:59:02;8.67;;;6.03;;
14205;SDS011;7186;48.800;9.216;2022-08-11T17:01:42;8.53;;;4.20;;
14205;SDS011;7186;48.800;9.216;2022-08-11T17:04:42;4.07;;;3.57;;
14205;SDS011;7186;48.800;9.216;2022-08-11T17:07:32;9.67;;;6.43;;
14205;SDS011;7186;48.800;9.216;2022-08-11T17:10:25;5.03;;;3.23;;
14205;SDS011;7186;48.800;9.216;2022-08-11T17:13:12;5.53;;;3.60;;
14205;SDS011;7186;48.800;9.216;2022-08-11T17:15:46;4.60;;;3.50;;
14205;SDS011;7186;48.800;9.216;2022-08-11T17:18:36;4.63;;;3.00;;
14205;SDS011;7186;48.800;9.216;2022-08-11T17:21:25;4.53;;;3.37;;
14205;SDS011;7186;48.800;9.216;2022-08-11T17:24:03;4.50;;;3.60;;
14205;SDS011;7186;48.800;9.216;2022-08-11T17:26:34;7.33;;;5.53;;
14205;SDS011;7186;48.800;9.216;2022-08-11T17:29:20;4.87;;;3.77;;
14205;SDS011;7186;48.800;9.216;2022-08-11T17:32:00;14.60;;;6.83;;
14205;SDS011;7186;48.800;9.216;2022-08-11T17:34:47;8.23;;;4.70;;
14205;SDS011;7186;48.800;9.216;2022-08-11T17:37:33;7.50;;;5.23;;
14205;SDS011;7186;48.800;9.216;2022-08-11T17:40:02;4.50;;;4.10;;
14205;SDS011;7186;48.800;9.216;2022-08-11T17:42:31;4.80;;;4.20;;
14205;SDS011;7186;48.800;9.216;2022-08-11T17:45:17;9.57;;;6.77;;
14205;SDS011;7186;48.800;9.216;2022-08-11T17:48:12;13.23;;;9.63;;
14205;SDS011;7186;48.800;9.216;2022-08-11T17:50:52;8.00;;;5.23;;
14205;SDS011;7186;48.800;9.216;2022-08-11T17:53:23;5.13;;;3.97;;
14205;SDS011;7186;48.800;9.216;2022-08-11T17:56:07;10.10;;;7.07;;
14205;SDS011;7186;48.800;9.216;2022-08-11T17:58:53;12.73;;;7.80;;
14205;SDS011;7186;48.800;9.216;2022-08-11T18:01:38;12.13;;;8.83;;
14205;SDS011;7186;48.800;9.216;2022-08-11T18:04:06;15.47;;;9.60;;
14205;SDS011;7186;48.800;9.216;2022-08-11T18:06:34;10.50;;;6.60;;
14205;SDS011;7186;48.800;9.216;2022-08-11T18:09:05;12.03;;;8.23;;
14205;SDS011;7186;48.800;9.216;2022-08-11T18:11:52;18.73;;;11.57;;
14205;SDS011;7186;48.800;9.216;2022-08-11T18:14:38;12.97;;;8.27;;
14205;SDS011;7186;48.800;9.216;2022-08-11T18:17:26;15.07;;;9.83;;
14205;SDS011;7186;48.800;9.216;2022-08-11T18:20:10;5.83;;;4.50;;
14205;SDS011;7186;48.800;9.216;2022-08-11T18:22:54;4.00;;;3.30;;
14205;SDS011;7186;48.800;9.216;2022-08-11T18:25:41;8.33;;;4.27;;
14205;SDS011;7186;48.800;9.216;2022-08-11T18:28:30;8.17;;;5.50;;
14205;SDS011;7186;48.800;9.216;2022-08-11T18:31:18;6.57;;;4.83;;
14205;SDS011;7186;48.800;9.216;2022-08-11T18:34:05;7.30;;;4.73;;
14205;SDS011;7186;48.800;9.216;2022-08-11T18:36:59;4.70;;;3.57;;
14205;SDS011;7186;48.800;9.216;2022-08-11T18:39:46;3.57;;;3.23;;
14205;SDS011;7186;48.800;9.216;2022-08-11T18:42:36;5.03;;;3.90;;
14205;SDS011;7186;48.800;9.216;2022-08-11T18:45:23;20.77;;;12.87;;
14205;SDS011;7186;48.800;9.216;2022-08-11T18:48:09;41.50;;;23.57;;
14205;SDS011;7186;48.800;9.216;2022-08-11T18:50:56;28.27;;;17.67;;
14205;SDS011;7186;48.800;9.216;2022-08-11T18:53:50;15.00;;;9.03;;
14205;SDS011;7186;48.800;9.216;2022-08-11T18:56:36;10.07;;;5.10;;
14205;SDS011;7186;48.800;9.216;2022-08-11T18:59:23;27.43;;;15.87;;
14205;SDS011;7186;48.800;9.216;2022-08-11T19:02:10;23.57;;;16.43;;
14205;SDS011;7186;48.800;9.216;2022-08-11T19:04:57;22.17;;;13.07;;
14205;SDS011;7186;48.800;9.216;2022-08-11T19:07:42;8.83;;;6.23;;
14205;SDS011;7186;48.800;9.216;2022-08-11T19:10:28;7.13;;;5.00;;
14205;SDS011;7186;48.800;9.216;2022-08-11T19:13:13;4.43;;;3.57;;
14205;SDS011;7186;48.800;9.216;2022-08-11T19:15:59;4.23;;;3.30;;
14205;SDS011;7186;48.800;9.216;2022-08-11T19:18:46;5.67;;;4.10;;
14205;SDS011;7186;48.800;9.216;2022-08-11T19:21:34;10.17;;;6.87;;
14205;SDS011;7186;48.800;9.216;2022-08-11T19:24:21;13.77;;;8.50;;
14205;SDS011;7186;48.800;9.216;2022-08-11T19:27:07;30.27;;;15.93;;
14205;SDS011;7186;48.800;9.216;2022-08-11T19:29:52;17.40;;;10.70;;
14205;SDS011;7186;48.800;9.216;2022-08-11T19:32:39;18.70;;;12.87;;
14205;SDS011;7186;48.800;9.216;2022-08-11T19:35:24;14.23;;;9.93;;
14205;SDS011;7186;48.800;9.216;2022-08-11T19:38:09;12.43;;;7.80;;
14205;SDS011;7186;48.800;9.216;2022-08-11T19:40:54;9.27;;;6.20;;
14205;SDS011;7186;48.800;9.216;2022-08-11T19:43:40;6.40;;;5.17;;
14205;SDS011;7186;48.800;9.216;2022-08-11T19:46:26;7.57;;;5.70;;
14205;SDS011;7186;48.800;9.216;2022-08-11T19:49:12;10.43;;;6.70;;
14205;SDS011;7186;48.800;9.216;2022-08-11T19:51:58;18.80;;;12.17;;
14205;SDS011;7186;48.800;9.216;2022-08-11T19:54:43;18.57;;;11.07;;
14205;SDS011;7186;48.800;9.216;2022-08-11T19:57:28;13.67;;;8.63;;
14205;SDS011;7186;48.800;9.216;2022-08-11T20:00:15;10.93;;;7.20;;
14205;SDS011;7186;48.800;9.216;2022-08-11T20:03:01;9.20;;;5.17;;
14205;SDS011;7186;48.800;9.216;2022-08-11T20:05:47;6.03;;;4.07;;
14205;SDS011;7186;48.800;9.216;2022-08-11T20:08:33;6.13;;;3.83;;
14205;SDS011;7186;48.800;9.216;2022-08-11T20:11:19;8.87;;;4.70;;
14205;SDS011;7186;48.800;9.216;2022-08-11T20:14:04;8.03;;;5.07;;
14205;SDS011;7186;48.800;9.216;2022-08-11T20:16:51;8.40;;;5.43;;
14205;SDS011;7186;48.800;9.216;2022-08-11T20:19:36;7.13;;;3.73;;
14205;SDS011;7186;48.800;9.216;2022-08-11T20:22:23;4.93;;;4.20;;
14205;SDS011;7186;48.800;9.216;2022-08-11T20:25:09;7.23;;;3.80;;
14205;SDS011;7186;48.800;9.216;2022-08-11T20:27:53;5.73;;;4.10;;